Hauptseite
METAR-TAF:

METAR-TAF

Flughäfen :

Flughafen Niamey

Niamey, Niger

Breite: 13-29N, Länge: 002-10E, Höhe: 223 m

Beobachtung

Neuester Wetterbericht von vor 1 Stunde und 3 Minuten, um 20:00 UTC
Wind 4 kt aus Ost
Temperatur 38°C
Luftfeuchtigkeit 9%
Luftdruck 1008 hPa
Sichtweite: 6000 m

METAR: DRRN 202000Z 08004KT 6000 NSC 38/M00 Q1008 NOSIG

Zeit: 22:03 (21:03 UTC)

Prognose

Neuester Wetterbericht von vor 4 Stunden und 3 Minuten, um 17:00 UTC
Gültige Prognose vom 20 um 18 UTC bis 21 um 24 UTC
Wind 6 kt aus Ost/Südost
Sichtweite: 6000 m
Zeitweise
vom 20 um 18 UTC bis 20 um 21 UTC
Sichtweite: 4500 m
verbreitet Staub
Zeitweise
vom 21 um 06 UTC bis 21 um 09 UTC
Sichtweite: 3500 m
verbreitet Staub

TAF: DRRN 201700Z 2018/2124 12006KT 6000 NSC TEMPO 2018/2021 4500 DU TEMPO 2106/2109 3500 DU

Wetterbeobachtungen und Prognosen von mehr als 4000 Flughäfen (METAR und TAF Bericht).

Die verfügbaren Stationen werden durch gelbe und rote Markierungen auf der Karte dargestellt.

Führen Sie die Maus auf sie, um den Namen der Station zu sehen.

Darauf klicken, um die Beobachtung von Wetterbeobachtungen und Prognosen zu sehen.

Um die Karte zu ändern : klicken Sie auf den grünen Tasten mit einem schwarzen Kreuz Zum Vergrößern, auf den grünen Button mit einem Gedankenstrich zu verkleinern, oder auf die grünen Pfeile für benachbarte Karten.


METAR-TAF: